»·PEaware :: AAL5460 KDEN-KEGE

AAL5460 :: KDEN-KEGE

FLIGHT INFORMATION

Flight Status: Arrived
Operator:
American Airlines
More flights by this operator :: More flights under this callsign
Pilot: Anonymous 1753 (1753)
Aircraft: AIRBUS A320
(A320)
More flights by this aircraft type
Origin: KDEN Denver Intl
United States
Destination: KEGE Eagle Co Regl
United States
More flights between these airports :: More routes between these airports
Route: ZIMMR3 CHNGY QNDRY
File this flight plan on PilotEdge
Remarks:
Altitude:
(Current/Filed)
26,000ft
Speed:
(Current/Filed)
383kts
Departed: 25-Nov-21 04:05 PM
Arrived: 25-Nov-21 04:33 PM
Distance/Time
Traveled:
104nm/0:27
Distance/Time
To Go:
Arrived

Flight Plot

Page will automatically refresh every two minutes.

Flight plan parsing failed; only flown route is shown


Map Options




Map Legend


Flown Route
Filed Route
Departure Airport
Arrival Airport
Navaid (VOR, NDB)
Fix

Horizontal Profiles

Position Reports

Time Latitude Longitude Heading Altitude Ground
Speed
25-Nov-21 15:37 39.865556 -104.668680 359 5396ft 0kts
25-Nov-21 15:38 39.865556 -104.668680 359 5396ft 0kts
25-Nov-21 15:39 39.865556 -104.668680 359 5396ft 0kts
25-Nov-21 15:40 39.865556 -104.668680 359 5396ft 0kts
25-Nov-21 15:41 39.865556 -104.668680 359 5396ft 0kts
25-Nov-21 15:42 39.865556 -104.668680 359 5396ft 0kts
25-Nov-21 15:43 39.865556 -104.668680 359 5396ft 0kts
25-Nov-21 15:44 39.865269 -104.668659 356 5398ft 2kts
25-Nov-21 15:45 39.864702 -104.668617 356 5401ft 0kts
25-Nov-21 15:46 39.864654 -104.668614 359 5401ft 0kts
25-Nov-21 15:47 39.864654 -104.668614 359 5401ft 0kts
25-Nov-21 15:48 39.864654 -104.668614 359 5401ft 0kts
25-Nov-21 15:49 39.864654 -104.668614 359 5401ft 0kts
25-Nov-21 15:50 39.864654 -104.668614 359 5401ft 0kts
25-Nov-21 15:51 39.864654 -104.668614 359 5401ft 0kts
25-Nov-21 15:52 39.864654 -104.668614 359 5401ft 0kts
25-Nov-21 15:53 39.864654 -104.668614 359 5401ft 0kts
25-Nov-21 15:54 39.864654 -104.668614 359 5401ft 0kts
25-Nov-21 15:55 39.864654 -104.668614 359 5401ft 0kts
25-Nov-21 15:56 39.864654 -104.668614 359 5401ft 0kts
25-Nov-21 15:57 39.864654 -104.668614 359 5401ft 0kts
25-Nov-21 15:58 39.864772 -104.666352 88 5405ft 12kts
25-Nov-21 15:59 39.865080 -104.663676 87 5409ft 6kts
25-Nov-21 16:00 39.863526 -104.663432 178 5415ft 5kts
25-Nov-21 16:01 39.863152 -104.663420 178 5417ft 0kts
25-Nov-21 16:02 39.861983 -104.663436 180 5421ft 14kts
25-Nov-21 16:03 39.860510 -104.660056 191 5415ft 4kts
25-Nov-21 16:04 39.840390 -104.660401 187 6043ft 186kts
25-Nov-21 16:05 39.833089 -104.717086 304 9937ft 241kts
25-Nov-21 16:06 39.877309 -104.800486 304 12340ft 329kts
25-Nov-21 16:07 39.929945 -104.909139 285 14686ft 378kts
25-Nov-21 16:08 39.935352 -105.038931 271 19101ft 351kts
25-Nov-21 16:09 39.937969 -105.160582 271 22754ft 343kts
25-Nov-21 16:10 39.945251 -105.296491 276 23031ft 388kts
25-Nov-21 16:11 39.956128 -105.436097 276 23032ft 388kts
25-Nov-21 16:12 39.966963 -105.575293 276 23032ft 388kts
25-Nov-21 16:13 39.975617 -105.702896 273 23032ft 388kts
25-Nov-21 16:14 39.982673 -105.842983 273 23033ft 388kts
25-Nov-21 16:15 39.989542 -105.982634 273 23032ft 388kts
25-Nov-21 16:16 39.996229 -106.122015 273 23033ft 388kts
25-Nov-21 16:17 40.002725 -106.261110 273 22820ft 366kts
25-Nov-21 16:18 40.008426 -106.386855 273 21936ft 329kts
25-Nov-21 16:19 39.964441 -106.478353 191 20964ft 340kts
25-Nov-21 16:20 39.873084 -106.481503 151 18942ft 329kts
25-Nov-21 16:21 39.846147 -106.381414 64 15847ft 315kts
25-Nov-21 16:22 39.913452 -106.337186 348 14925ft 314kts
25-Nov-21 16:23 39.989716 -106.383619 296 14834ft 316kts
25-Nov-21 16:24 39.965158 -106.474093 211 14390ft 281kts
25-Nov-21 16:25 39.898573 -106.527016 211 14027ft 280kts
25-Nov-21 16:26 39.832473 -106.580104 212 14023ft 280kts
25-Nov-21 16:27 39.760707 -106.618295 196 13445ft 281kts
25-Nov-21 16:28 39.692578 -106.657858 238 12205ft 272kts
25-Nov-21 16:29 39.666244 -106.747330 256 10965ft 246kts
25-Nov-21 16:30 39.653496 -106.830328 258 8782ft 246kts
25-Nov-21 16:31 39.643770 -106.907187 261 6590ft 167kts
25-Nov-21 16:32 39.640042 -106.930662 87 6553ft 8kts
25-Nov-21 16:33 39.640426 -106.927402 81 6553ft 11kts
25-Nov-21 16:34 39.640876 -106.922835 80 6553ft 14kts
25-Nov-21 16:35 39.641606 -106.916611 82 6553ft 0kts
25-Nov-21 16:36 39.641170 -106.914854 76 6553ft 6kts
25-Nov-21 16:37 39.640872 -106.914306 165 6553ft 5kts
25-Nov-21 16:38 39.640742 -106.914275 171 6553ft 0kts
25-Nov-21 16:39 39.640742 -106.914275 171 6553ft 0kts
25-Nov-21 16:40 39.640742 -106.914275 171 6553ft 0kts
25-Nov-21 16:41 39.640742 -106.914275 171 6553ft 0kts
25-Nov-21 16:42 39.640742 -106.914275 171 6553ft 0kts
25-Nov-21 16:43 39.640742 -106.914275 171 6553ft 0kts
25-Nov-21 16:44 39.640742 -106.914275 171 6553ft 0kts
25-Nov-21 16:45 39.640742 -106.914275 171 6553ft 0kts
25-Nov-21 16:46 39.640742 -106.914275 171 6553ft 0kts

Navigation Log

Ident Type
Flight plan parsing failed, navigation log unavailable